sensor_id;sensor_type;location;lat;lon;timestamp;temperature;humidity
63976;DHT22;50167;47.958;21.780;2023-04-24T00:00:34;10.32;59.00
63976;DHT22;50167;47.958;21.780;2023-04-24T00:03:00;10.27;59.50
63976;DHT22;50167;47.958;21.780;2023-04-24T00:05:26;10.23;59.70
63976;DHT22;50167;47.958;21.780;2023-04-24T00:07:53;10.15;60.35
63976;DHT22;50167;47.958;21.780;2023-04-24T00:10:20;10.08;60.92
63976;DHT22;50167;47.958;21.780;2023-04-24T00:12:46;10.00;61.28
63976;DHT22;50167;47.958;21.780;2023-04-24T00:15:13;9.92;61.16
63976;DHT22;50167;47.958;21.780;2023-04-24T00:17:39;9.82;61.62
63976;DHT22;50167;47.958;21.780;2023-04-24T00:20:06;9.76;62.30
63976;DHT22;50167;47.958;21.780;2023-04-24T00:22:33;10.55;66.26
63976;DHT22;50167;47.958;21.780;2023-04-24T00:24:59;12.03;67.12
63976;DHT22;50167;47.958;21.780;2023-04-24T00:27:26;13.03;63.60
63976;DHT22;50167;47.958;21.780;2023-04-24T00:29:52;13.77;60.02
63976;DHT22;50167;47.958;21.780;2023-04-24T00:32:18;13.71;55.07
63976;DHT22;50167;47.958;21.780;2023-04-24T00:34:45;12.91;54.24
63976;DHT22;50167;47.958;21.780;2023-04-24T00:37:11;12.27;54.69
63976;DHT22;50167;47.958;21.780;2023-04-24T00:39:38;11.76;55.14
63976;DHT22;50167;47.958;21.780;2023-04-24T00:42:04;11.41;55.60
63976;DHT22;50167;47.958;21.780;2023-04-24T00:44:33;11.08;56.82
63976;DHT22;50167;47.958;21.780;2023-04-24T00:47:01;10.83;58.01
63976;DHT22;50167;47.958;21.780;2023-04-24T00:49:27;10.62;58.83
63976;DHT22;50167;47.958;21.780;2023-04-24T00:51:54;10.39;59.56
63976;DHT22;50167;47.958;21.780;2023-04-24T00:54:20;10.21;60.47
63976;DHT22;50167;47.958;21.780;2023-04-24T00:56:46;10.04;60.90
63976;DHT22;50167;47.958;21.780;2023-04-24T00:59:16;9.86;61.82
63976;DHT22;50167;47.958;21.780;2023-04-24T01:01:42;9.67;62.45
63976;DHT22;50167;47.958;21.780;2023-04-24T01:04:09;10.42;67.05
63976;DHT22;50167;47.958;21.780;2023-04-24T01:06:39;11.90;66.52
63976;DHT22;50167;47.958;21.780;2023-04-24T01:09:06;12.92;63.28
63976;DHT22;50167;47.958;21.780;2023-04-24T01:11:37;13.74;60.19
63976;DHT22;50167;47.958;21.780;2023-04-24T01:14:04;13.64;55.06
63976;DHT22;50167;47.958;21.780;2023-04-24T01:16:30;12.74;54.87
63976;DHT22;50167;47.958;21.780;2023-04-24T01:18:56;11.99;56.14
63976;DHT22;50167;47.958;21.780;2023-04-24T01:21:23;11.42;56.99
63976;DHT22;50167;47.958;21.780;2023-04-24T01:23:53;10.94;57.43
63976;DHT22;50167;47.958;21.780;2023-04-24T01:26:23;10.53;58.63
63976;DHT22;50167;47.958;21.780;2023-04-24T01:28:49;10.23;59.13
63976;DHT22;50167;47.958;21.780;2023-04-24T01:31:16;9.96;59.43
63976;DHT22;50167;47.958;21.780;2023-04-24T01:33:42;9.67;60.22
63976;DHT22;50167;47.958;21.780;2023-04-24T01:36:11;9.42;60.92
63976;DHT22;50167;47.958;21.780;2023-04-24T01:38:37;9.08;61.74
63976;DHT22;50167;47.958;21.780;2023-04-24T01:41:04;8.79;62.60
63976;DHT22;50167;47.958;21.780;2023-04-24T01:43:30;9.39;64.09
63976;DHT22;50167;47.958;21.780;2023-04-24T01:45:57;10.90;66.99
63976;DHT22;50167;47.958;21.780;2023-04-24T01:48:23;11.96;63.88
63976;DHT22;50167;47.958;21.780;2023-04-24T01:50:50;12.55;60.17
63976;DHT22;50167;47.958;21.780;2023-04-24T01:53:16;12.47;56.40
63976;DHT22;50167;47.958;21.780;2023-04-24T01:55:42;11.59;56.03
63976;DHT22;50167;47.958;21.780;2023-04-24T01:58:09;10.89;56.69
63976;DHT22;50167;47.958;21.780;2023-04-24T02:00:35;10.35;57.56
63976;DHT22;50167;47.958;21.780;2023-04-24T02:03:02;9.93;58.18
63976;DHT22;50167;47.958;21.780;2023-04-24T02:05:28;9.58;59.21
63976;DHT22;50167;47.958;21.780;2023-04-24T02:07:54;9.28;60.58
63976;DHT22;50167;47.958;21.780;2023-04-24T02:10:21;9.00;61.91
63976;DHT22;50167;47.958;21.780;2023-04-24T02:12:47;9.63;65.68
63976;DHT22;50167;47.958;21.780;2023-04-24T02:15:13;10.94;65.02
63976;DHT22;50167;47.958;21.780;2023-04-24T02:17:39;11.89;63.14
63976;DHT22;50167;47.958;21.780;2023-04-24T02:20:07;12.82;60.43
63976;DHT22;50167;47.958;21.780;2023-04-24T02:22:33;12.79;54.96
63976;DHT22;50167;47.958;21.780;2023-04-24T02:24:59;11.80;54.47
63976;DHT22;50167;47.958;21.780;2023-04-24T02:27:26;10.96;55.43
63976;DHT22;50167;47.958;21.780;2023-04-24T02:29:52;10.32;56.92
63976;DHT22;50167;47.958;21.780;2023-04-24T02:32:18;9.82;58.20
63976;DHT22;50167;47.958;21.780;2023-04-24T02:34:45;9.41;59.09
63976;DHT22;50167;47.958;21.780;2023-04-24T02:37:11;9.04;60.13
63976;DHT22;50167;47.958;21.780;2023-04-24T02:39:37;8.79;61.03
63976;DHT22;50167;47.958;21.780;2023-04-24T02:42:03;8.53;61.99
63976;DHT22;50167;47.958;21.780;2023-04-24T02:44:30;9.37;66.29
63976;DHT22;50167;47.958;21.780;2023-04-24T02:46:57;10.76;65.55
63976;DHT22;50167;47.958;21.780;2023-04-24T02:49:23;11.78;63.31
63976;DHT22;50167;47.958;21.780;2023-04-24T02:51:50;12.62;61.32
63976;DHT22;50167;47.958;21.780;2023-04-24T02:54:16;13.16;57.84
63976;DHT22;50167;47.958;21.780;2023-04-24T02:56:42;12.75;53.63
63976;DHT22;50167;47.958;21.780;2023-04-24T02:59:08;11.69;53.45
63976;DHT22;50167;47.958;21.780;2023-04-24T03:01:34;10.86;54.87
63976;DHT22;50167;47.958;21.780;2023-04-24T03:04:01;10.21;56.66
63976;DHT22;50167;47.958;21.780;2023-04-24T03:06:27;9.77;58.11
63976;DHT22;50167;47.958;21.780;2023-04-24T03:08:54;9.42;59.02
63976;DHT22;50167;47.958;21.780;2023-04-24T03:11:20;9.04;60.23
63976;DHT22;50167;47.958;21.780;2023-04-24T03:13:46;8.72;61.63
63976;DHT22;50167;47.958;21.780;2023-04-24T03:16:12;9.15;64.74
63976;DHT22;50167;47.958;21.780;2023-04-24T03:18:38;10.10;65.25
63976;DHT22;50167;47.958;21.780;2023-04-24T03:21:05;10.87;64.17
63976;DHT22;50167;47.958;21.780;2023-04-24T03:23:31;11.66;62.39
63976;DHT22;50167;47.958;21.780;2023-04-24T03:25:57;12.28;60.02
63976;DHT22;50167;47.958;21.780;2023-04-24T03:28:23;12.16;56.38
63976;DHT22;50167;47.958;21.780;2023-04-24T03:30:51;11.27;55.88
63976;DHT22;50167;47.958;21.780;2023-04-24T03:33:18;10.46;56.71
63976;DHT22;50167;47.958;21.780;2023-04-24T03:35:44;9.90;57.92
63976;DHT22;50167;47.958;21.780;2023-04-24T03:38:10;9.41;59.08
63976;DHT22;50167;47.958;21.780;2023-04-24T03:40:36;9.04;60.41
63976;DHT22;50167;47.958;21.780;2023-04-24T03:43:03;8.69;61.56
63976;DHT22;50167;47.958;21.780;2023-04-24T03:45:29;9.15;64.68
63976;DHT22;50167;47.958;21.780;2023-04-24T03:47:55;10.56;66.09
63976;DHT22;50167;47.958;21.780;2023-04-24T03:50:21;11.41;63.49
63976;DHT22;50167;47.958;21.780;2023-04-24T03:52:47;11.73;60.35
63976;DHT22;50167;47.958;21.780;2023-04-24T03:55:14;11.86;59.31
63976;DHT22;50167;47.958;21.780;2023-04-24T03:57:41;11.57;57.12
63976;DHT22;50167;47.958;21.780;2023-04-24T04:00:08;10.82;56.97
63976;DHT22;50167;47.958;21.780;2023-04-24T04:02:34;10.17;58.35
63976;DHT22;50167;47.958;21.780;2023-04-24T04:05:01;9.73;59.53
63976;DHT22;50167;47.958;21.780;2023-04-24T04:07:27;9.39;60.48
63976;DHT22;50167;47.958;21.780;2023-04-24T04:09:55;9.11;61.57
63976;DHT22;50167;47.958;21.780;2023-04-24T04:12:21;9.58;64.97
63976;DHT22;50167;47.958;21.780;2023-04-24T04:14:47;10.89;66.12
63976;DHT22;50167;47.958;21.780;2023-04-24T04:17:13;12.00;62.47
63976;DHT22;50167;47.958;21.780;2023-04-24T04:19:41;12.36;59.30
63976;DHT22;50167;47.958;21.780;2023-04-24T04:22:07;12.21;57.03
63976;DHT22;50167;47.958;21.780;2023-04-24T04:24:34;11.45;56.65
63976;DHT22;50167;47.958;21.780;2023-04-24T04:27:02;10.82;58.21
63976;DHT22;50167;47.958;21.780;2023-04-24T04:29:29;10.42;59.44
63976;DHT22;50167;47.958;21.780;2023-04-24T04:31:57;10.14;60.46
63976;DHT22;50167;47.958;21.780;2023-04-24T04:34:24;9.93;61.12
63976;DHT22;50167;47.958;21.780;2023-04-24T04:36:50;9.77;62.12
63976;DHT22;50167;47.958;21.780;2023-04-24T04:39:16;10.32;65.25
63976;DHT22;50167;47.958;21.780;2023-04-24T04:41:44;11.59;65.61
63976;DHT22;50167;47.958;21.780;2023-04-24T04:44:12;12.64;62.67
63976;DHT22;50167;47.958;21.780;2023-04-24T04:46:39;13.34;60.32
63976;DHT22;50167;47.958;21.780;2023-04-24T04:49:07;13.91;58.59
63976;DHT22;50167;47.958;21.780;2023-04-24T04:51:34;13.74;55.41
63976;DHT22;50167;47.958;21.780;2023-04-24T04:54:01;12.95;55.71
63976;DHT22;50167;47.958;21.780;2023-04-24T04:56:27;12.37;56.66
63976;DHT22;50167;47.958;21.780;2023-04-24T04:58:53;11.93;58.10
63976;DHT22;50167;47.958;21.780;2023-04-24T05:01:19;11.62;59.09
63976;DHT22;50167;47.958;21.780;2023-04-24T05:03:47;11.41;59.73
63976;DHT22;50167;47.958;21.780;2023-04-24T05:06:13;11.25;61.20
63976;DHT22;50167;47.958;21.780;2023-04-24T05:08:39;11.11;61.62
63976;DHT22;50167;47.958;21.780;2023-04-24T05:11:05;11.00;62.76
63976;DHT22;50167;47.958;21.780;2023-04-24T05:13:32;11.65;63.85
63976;DHT22;50167;47.958;21.780;2023-04-24T05:15:58;13.06;63.51
63976;DHT22;50167;47.958;21.780;2023-04-24T05:18:25;13.79;59.41
63976;DHT22;50167;47.958;21.780;2023-04-24T05:20:51;13.81;56.58
63976;DHT22;50167;47.958;21.780;2023-04-24T05:23:17;13.34;56.18
63976;DHT22;50167;47.958;21.780;2023-04-24T05:25:43;12.99;56.77
63976;DHT22;50167;47.958;21.780;2023-04-24T05:28:09;12.79;57.89
63976;DHT22;50167;47.958;21.780;2023-04-24T05:30:35;12.64;58.34
63976;DHT22;50167;47.958;21.780;2023-04-24T05:33:02;12.56;58.65
63976;DHT22;50167;47.958;21.780;2023-04-24T05:35:29;12.52;59.08
63976;DHT22;50167;47.958;21.780;2023-04-24T05:37:55;12.49;59.05
63976;DHT22;50167;47.958;21.780;2023-04-24T05:40:21;12.52;59.73
63976;DHT22;50167;47.958;21.780;2023-04-24T05:42:47;12.52;60.01
63976;DHT22;50167;47.958;21.780;2023-04-24T05:45:14;12.56;60.58
63976;DHT22;50167;47.958;21.780;2023-04-24T05:47:43;12.59;60.69
63976;DHT22;50167;47.958;21.780;2023-04-24T05:50:11;12.62;60.64
63976;DHT22;50167;47.958;21.780;2023-04-24T05:52:37;12.72;61.04
63976;DHT22;50167;47.958;21.780;2023-04-24T05:55:04;12.79;60.53
63976;DHT22;50167;47.958;21.780;2023-04-24T05:57:31;12.87;61.10
63976;DHT22;50167;47.958;21.780;2023-04-24T05:59:57;12.98;61.07
63976;DHT22;50167;47.958;21.780;2023-04-24T06:02:23;13.06;61.06
63976;DHT22;50167;47.958;21.780;2023-04-24T06:04:49;13.20;60.61
63976;DHT22;50167;47.958;21.780;2023-04-24T06:07:16;13.34;60.56
63976;DHT22;50167;47.958;21.780;2023-04-24T06:09:42;13.48;60.42
63976;DHT22;50167;47.958;21.780;2023-04-24T06:12:08;13.64;60.58
63976;DHT22;50167;47.958;21.780;2023-04-24T06:14:35;13.82;60.77
63976;DHT22;50167;47.958;21.780;2023-04-24T06:17:01;13.96;60.22
63976;DHT22;50167;47.958;21.780;2023-04-24T06:19:27;14.13;59.85
63976;DHT22;50167;47.958;21.780;2023-04-24T06:21:53;14.31;59.75
63976;DHT22;50167;47.958;21.780;2023-04-24T06:24:20;14.45;59.15
63976;DHT22;50167;47.958;21.780;2023-04-24T06:26:48;14.67;58.51
63976;DHT22;50167;47.958;21.780;2023-04-24T06:29:14;14.84;58.66
63976;DHT22;50167;47.958;21.780;2023-04-24T06:31:40;15.05;57.93
63976;DHT22;50167;47.958;21.780;2023-04-24T06:34:06;15.22;56.80
63976;DHT22;50167;47.958;21.780;2023-04-24T06:36:33;15.37;56.54
63976;DHT22;50167;47.958;21.780;2023-04-24T06:39:00;15.57;56.57
63976;DHT22;50167;47.958;21.780;2023-04-24T06:41:27;15.73;55.98
63976;DHT22;50167;47.958;21.780;2023-04-24T06:43:53;15.91;55.40
63976;DHT22;50167;47.958;21.780;2023-04-24T06:46:20;16.09;54.34
63976;DHT22;50167;47.958;21.780;2023-04-24T06:48:48;16.28;54.98
63976;DHT22;50167;47.958;21.780;2023-04-24T06:51:14;16.44;53.58
63976;DHT22;50167;47.958;21.780;2023-04-24T06:53:40;16.61;53.69
63976;DHT22;50167;47.958;21.780;2023-04-24T06:56:06;16.80;54.71
63976;DHT22;50167;47.958;21.780;2023-04-24T06:58:32;17.01;52.36
63976;DHT22;50167;47.958;21.780;2023-04-24T07:00:58;17.21;51.26
63976;DHT22;50167;47.958;21.780;2023-04-24T07:03:25;17.35;50.51
63976;DHT22;50167;47.958;21.780;2023-04-24T07:05:51;17.54;51.46
63976;DHT22;50167;47.958;21.780;2023-04-24T07:08:19;17.69;51.08
63976;DHT22;50167;47.958;21.780;2023-04-24T07:10:46;17.84;49.23
63976;DHT22;50167;47.958;21.780;2023-04-24T07:13:12;18.02;49.11
63976;DHT22;50167;47.958;21.780;2023-04-24T07:15:38;18.19;48.13
63976;DHT22;50167;47.958;21.780;2023-04-24T07:18:16;18.37;48.03
63976;DHT22;50167;47.958;21.780;2023-04-24T07:20:42;18.50;47.52
63976;DHT22;50167;47.958;21.780;2023-04-24T07:23:08;18.69;46.79
63976;DHT22;50167;47.958;21.780;2023-04-24T07:25:35;18.86;46.40
63976;DHT22;50167;47.958;21.780;2023-04-24T07:28:01;19.00;45.10
63976;DHT22;50167;47.958;21.780;2023-04-24T07:30:27;19.12;44.54
63976;DHT22;50167;47.958;21.780;2023-04-24T07:36:55;19.46;44.32
63976;DHT22;50167;47.958;21.780;2023-04-24T07:39:21;19.56;43.49
63976;DHT22;50167;47.958;21.780;2023-04-24T07:41:47;19.69;43.56
63976;DHT22;50167;47.958;21.780;2023-04-24T07:44:13;19.81;42.97
63976;DHT22;50167;47.958;21.780;2023-04-24T07:46:40;19.97;42.90
63976;DHT22;50167;47.958;21.780;2023-04-24T07:49:07;20.05;40.89
63976;DHT22;50167;47.958;21.780;2023-04-24T07:51:33;20.08;41.56
63976;DHT22;50167;47.958;21.780;2023-04-24T07:54:01;20.14;42.01
63976;DHT22;50167;47.958;21.780;2023-04-24T07:56:27;20.29;42.27
63976;DHT22;50167;47.958;21.780;2023-04-24T07:58:55;20.48;42.39
63976;DHT22;50167;47.958;21.780;2023-04-24T08:01:23;20.72;41.19
63976;DHT22;50167;47.958;21.780;2023-04-24T08:03:50;20.96;42.23
63976;DHT22;50167;47.958;21.780;2023-04-24T08:06:17;21.24;40.28
63976;DHT22;50167;47.958;21.780;2023-04-24T08:08:43;21.45;39.71
63976;DHT22;50167;47.958;21.780;2023-04-24T08:11:09;21.68;39.50
63976;DHT22;50167;47.958;21.780;2023-04-24T08:13:39;21.79;38.46
63976;DHT22;50167;47.958;21.780;2023-04-24T08:16:03;21.85;38.07
63976;DHT22;50167;47.958;21.780;2023-04-24T08:18:30;21.93;37.09
63976;DHT22;50167;47.958;21.780;2023-04-24T08:20:56;22.03;37.22
63976;DHT22;50167;47.958;21.780;2023-04-24T08:23:24;22.03;35.98
63976;DHT22;50167;47.958;21.780;2023-04-24T08:25:50;21.86;35.41
63976;DHT22;50167;47.958;21.780;2023-04-24T08:28:16;21.65;37.20
63976;DHT22;50167;47.958;21.780;2023-04-24T08:30:45;21.59;37.28
63976;DHT22;50167;47.958;21.780;2023-04-24T08:33:11;21.62;37.48
63976;DHT22;50167;47.958;21.780;2023-04-24T08:35:37;21.73;37.81
63976;DHT22;50167;47.958;21.780;2023-04-24T08:38:04;21.99;37.65
63976;DHT22;50167;47.958;21.780;2023-04-24T08:40:34;22.10;35.56
63976;DHT22;50167;47.958;21.780;2023-04-24T08:43:00;22.21;36.19
63976;DHT22;50167;47.958;21.780;2023-04-24T08:45:27;22.28;36.32
63976;DHT22;50167;47.958;21.780;2023-04-24T08:47:53;22.27;36.47
63976;DHT22;50167;47.958;21.780;2023-04-24T08:50:22;22.21;36.50
63976;DHT22;50167;47.958;21.780;2023-04-24T08:52:51;22.12;35.89
63976;DHT22;50167;47.958;21.780;2023-04-24T08:55:19;21.96;36.77
63976;DHT22;50167;47.958;21.780;2023-04-24T08:57:51;21.80;36.39
63976;DHT22;50167;47.958;21.780;2023-04-24T09:00:21;21.73;35.86
63976;DHT22;50167;47.958;21.780;2023-04-24T09:02:50;21.83;36.81
63976;DHT22;50167;47.958;21.780;2023-04-24T09:05:17;22.10;35.77
63976;DHT22;50167;47.958;21.780;2023-04-24T09:07:54;22.41;35.17
63976;DHT22;50167;47.958;21.780;2023-04-24T09:10:24;22.65;35.78
63976;DHT22;50167;47.958;21.780;2023-04-24T09:12:51;22.78;35.35
63976;DHT22;50167;47.958;21.780;2023-04-24T09:15:21;22.91;34.36
63976;DHT22;50167;47.958;21.780;2023-04-24T09:17:47;22.98;34.12
63976;DHT22;50167;47.958;21.780;2023-04-24T09:20:13;23.02;34.66
63976;DHT22;50167;47.958;21.780;2023-04-24T09:22:40;23.05;35.16
63976;DHT22;50167;47.958;21.780;2023-04-24T09:25:08;23.02;34.91
63976;DHT22;50167;47.958;21.780;2023-04-24T09:27:35;23.05;35.21
63976;DHT22;50167;47.958;21.780;2023-04-24T09:30:02;23.07;34.35
63976;DHT22;50167;47.958;21.780;2023-04-24T09:32:29;23.02;34.94
63976;DHT22;50167;47.958;21.780;2023-04-24T09:35:13;22.91;34.73
63976;DHT22;50167;47.958;21.780;2023-04-24T09:37:45;22.76;34.32
63976;DHT22;50167;47.958;21.780;2023-04-24T09:40:20;22.64;35.07
63976;DHT22;50167;47.958;21.780;2023-04-24T09:42:53;22.45;35.29
63976;DHT22;50167;47.958;21.780;2023-04-24T09:45:20;22.47;35.91
63976;DHT22;50167;47.958;21.780;2023-04-24T09:47:52;22.55;36.05
63976;DHT22;50167;47.958;21.780;2023-04-24T09:50:19;22.55;36.10
63976;DHT22;50167;47.958;21.780;2023-04-24T09:52:57;22.55;36.09
63976;DHT22;50167;47.958;21.780;2023-04-24T09:55:24;22.62;35.56
63976;DHT22;50167;47.958;21.780;2023-04-24T09:58:01;22.50;35.81
63976;DHT22;50167;47.958;21.780;2023-04-24T10:00:31;22.31;36.82
63976;DHT22;50167;47.958;21.780;2023-04-24T10:03:01;22.25;36.59
63976;DHT22;50167;47.958;21.780;2023-04-24T10:05:36;22.17;36.75
63976;DHT22;50167;47.958;21.780;2023-04-24T10:08:08;22.12;36.76
63976;DHT22;50167;47.958;21.780;2023-04-24T10:10:42;21.99;37.08
63976;DHT22;50167;47.958;21.780;2023-04-24T10:13:12;21.88;36.89
63976;DHT22;50167;47.958;21.780;2023-04-24T10:15:39;21.70;37.29
63976;DHT22;50167;47.958;21.780;2023-04-24T10:18:07;21.55;37.63
63976;DHT22;50167;47.958;21.780;2023-04-24T10:20:37;21.47;38.28
63976;DHT22;50167;47.958;21.780;2023-04-24T10:23:03;21.42;38.48
63976;DHT22;50167;47.958;21.780;2023-04-24T10:25:33;21.24;38.82
63976;DHT22;50167;47.958;21.780;2023-04-24T10:28:00;21.09;39.32
63976;DHT22;50167;47.958;21.780;2023-04-24T10:30:32;20.86;40.02
63976;DHT22;50167;47.958;21.780;2023-04-24T10:33:06;20.55;40.50
63976;DHT22;50167;47.958;21.780;2023-04-24T10:35:42;20.20;41.40
63976;DHT22;50167;47.958;21.780;2023-04-24T10:38:13;19.88;41.83
63976;DHT22;50167;47.958;21.780;2023-04-24T10:40:39;19.63;42.38
63976;DHT22;50167;47.958;21.780;2023-04-24T10:43:08;19.39;43.13
63976;DHT22;50167;47.958;21.780;2023-04-24T10:45:38;19.22;43.46
63976;DHT22;50167;47.958;21.780;2023-04-24T10:48:09;19.07;43.93
63976;DHT22;50167;47.958;21.780;2023-04-24T10:50:53;18.97;44.46
63976;DHT22;50167;47.958;21.780;2023-04-24T10:53:27;18.93;44.55
63976;DHT22;50167;47.958;21.780;2023-04-24T10:56:02;18.80;45.97
63976;DHT22;50167;47.958;21.780;2023-04-24T10:58:44;18.80;46.05
63976;DHT22;50167;47.958;21.780;2023-04-24T11:01:28;18.81;47.23
63976;DHT22;50167;47.958;21.780;2023-04-24T11:04:02;18.86;46.95
63976;DHT22;50167;47.958;21.780;2023-04-24T11:06:36;18.87;47.62
63976;DHT22;50167;47.958;21.780;2023-04-24T11:09:07;18.88;47.95
63976;DHT22;50167;47.958;21.780;2023-04-24T11:11:36;18.88;48.36
63976;DHT22;50167;47.958;21.780;2023-04-24T11:14:06;18.94;48.96
63976;DHT22;50167;47.958;21.780;2023-04-24T11:16:52;18.91;49.32
63976;DHT22;50167;47.958;21.780;2023-04-24T11:19:26;18.88;50.04
63976;DHT22;50167;47.958;21.780;2023-04-24T11:22:02;18.87;49.37
63976;DHT22;50167;47.958;21.780;2023-04-24T11:24:39;18.84;49.68
63976;DHT22;50167;47.958;21.780;2023-04-24T11:27:16;18.83;49.74
63976;DHT22;50167;47.958;21.780;2023-04-24T11:29:59;18.80;50.41
63976;DHT22;50167;47.958;21.780;2023-04-24T11:37:44;18.73;50.62
63976;DHT22;50167;47.958;21.780;2023-04-24T11:40:15;18.64;50.36
63976;DHT22;50167;47.958;21.780;2023-04-24T11:42:48;18.58;50.15
63976;DHT22;50167;47.958;21.780;2023-04-24T11:45:21;18.50;50.52
63976;DHT22;50167;47.958;21.780;2023-04-24T11:47:48;18.50;49.75
63976;DHT22;50167;47.958;21.780;2023-04-24T11:50:19;18.46;50.16
63976;DHT22;50167;47.958;21.780;2023-04-24T11:52:47;18.43;50.19
63976;DHT22;50167;47.958;21.780;2023-04-24T11:57:52;18.37;50.75
63976;DHT22;50167;47.958;21.780;2023-04-24T12:00:21;18.36;51.09
63976;DHT22;50167;47.958;21.780;2023-04-24T12:02:49;18.39;51.58
63976;DHT22;50167;47.958;21.780;2023-04-24T12:05:29;18.37;51.52
63976;DHT22;50167;47.958;21.780;2023-04-24T12:07:53;18.23;53.09
63976;DHT22;50167;47.958;21.780;2023-04-24T12:10:24;18.11;53.32
63976;DHT22;50167;47.958;21.780;2023-04-24T12:12:52;18.02;53.67
63976;DHT22;50167;47.958;21.780;2023-04-24T12:15:19;17.91;54.44
63976;DHT22;50167;47.958;21.780;2023-04-24T12:17:46;17.84;53.61
63976;DHT22;50167;47.958;21.780;2023-04-24T12:20:14;17.72;53.73
63976;DHT22;50167;47.958;21.780;2023-04-24T12:22:52;17.62;54.12
63976;DHT22;50167;47.958;21.780;2023-04-24T12:25:27;17.57;54.49
63976;DHT22;50167;47.958;21.780;2023-04-24T12:28:08;17.58;54.66
63976;DHT22;50167;47.958;21.780;2023-04-24T12:30:29;17.63;55.98
63976;DHT22;50167;47.958;21.780;2023-04-24T12:32:58;17.69;55.31
63976;DHT22;50167;47.958;21.780;2023-04-24T12:35:28;17.80;54.97
63976;DHT22;50167;47.958;21.780;2023-04-24T12:37:55;17.91;54.70
63976;DHT22;50167;47.958;21.780;2023-04-24T12:40:25;18.00;53.93
63976;DHT22;50167;47.958;21.780;2023-04-24T12:42:53;18.04;53.30
63976;DHT22;50167;47.958;21.780;2023-04-24T12:45:19;18.08;53.64
63976;DHT22;50167;47.958;21.780;2023-04-24T12:47:46;18.12;52.85
63976;DHT22;50167;47.958;21.780;2023-04-24T12:50:14;18.04;53.83
63976;DHT22;50167;47.958;21.780;2023-04-24T12:52:42;17.90;55.36
63976;DHT22;50167;47.958;21.780;2023-04-24T12:55:09;17.70;57.39
63976;DHT22;50167;47.958;21.780;2023-04-24T12:57:39;17.46;58.67
63976;DHT22;50167;47.958;21.780;2023-04-24T13:00:08;17.26;58.99
63976;DHT22;50167;47.958;21.780;2023-04-24T13:02:35;17.04;60.22
63976;DHT22;50167;47.958;21.780;2023-04-24T13:05:02;16.86;61.43
63976;DHT22;50167;47.958;21.780;2023-04-24T13:07:28;16.81;62.76
63976;DHT22;50167;47.958;21.780;2023-04-24T13:09:56;17.88;61.59
63976;DHT22;50167;47.958;21.780;2023-04-24T13:12:23;18.73;58.46
63976;DHT22;50167;47.958;21.780;2023-04-24T13:14:49;18.64;59.21
63976;DHT22;50167;47.958;21.780;2023-04-24T13:17:16;17.91;61.30
63976;DHT22;50167;47.958;21.780;2023-04-24T13:19:43;17.37;62.86
63976;DHT22;50167;47.958;21.780;2023-04-24T13:22:11;17.64;62.29
63976;DHT22;50167;47.958;21.780;2023-04-24T13:24:38;18.55;61.11
63976;DHT22;50167;47.958;21.780;2023-04-24T13:27:06;19.19;60.04
63976;DHT22;50167;47.958;21.780;2023-04-24T13:29:33;19.45;58.19
63976;DHT22;50167;47.958;21.780;2023-04-24T13:32:00;18.98;58.39
63976;DHT22;50167;47.958;21.780;2023-04-24T13:34:27;18.14;61.76
63976;DHT22;50167;47.958;21.780;2023-04-24T13:39:31;17.42;64.31
63976;DHT22;50167;47.958;21.780;2023-04-24T13:41:57;18.25;62.84
63976;DHT22;50167;47.958;21.780;2023-04-24T13:44:24;18.70;62.17
63976;DHT22;50167;47.958;21.780;2023-04-24T13:46:54;18.90;60.36
63976;DHT22;50167;47.958;21.780;2023-04-24T13:49:24;19.07;59.37
63976;DHT22;50167;47.958;21.780;2023-04-24T13:51:53;18.83;60.49
63976;DHT22;50167;47.958;21.780;2023-04-24T13:54:19;18.02;61.86
63976;DHT22;50167;47.958;21.780;2023-04-24T13:56:45;17.85;64.42
63976;DHT22;50167;47.958;21.780;2023-04-24T13:59:12;18.28;62.99
63976;DHT22;50167;47.958;21.780;2023-04-24T14:01:39;18.52;62.93
63976;DHT22;50167;47.958;21.780;2023-04-24T14:04:05;18.86;60.81
63976;DHT22;50167;47.958;21.780;2023-04-24T14:06:31;19.17;61.31
63976;DHT22;50167;47.958;21.780;2023-04-24T14:08:57;19.29;61.33
63976;DHT22;50167;47.958;21.780;2023-04-24T14:11:24;19.49;60.43
63976;DHT22;50167;47.958;21.780;2023-04-24T14:13:50;19.59;58.19
63976;DHT22;50167;47.958;21.780;2023-04-24T14:16:16;18.76;59.88
63976;DHT22;50167;47.958;21.780;2023-04-24T14:18:43;18.05;64.02
63976;DHT22;50167;47.958;21.780;2023-04-24T14:21:09;18.31;64.24
63976;DHT22;50167;47.958;21.780;2023-04-24T14:23:37;19.25;62.51
63976;DHT22;50167;47.958;21.780;2023-04-24T14:26:03;19.84;61.63
63976;DHT22;50167;47.958;21.780;2023-04-24T14:28:30;20.25;59.17
63976;DHT22;50167;47.958;21.780;2023-04-24T14:30:57;19.88;58.17
63976;DHT22;50167;47.958;21.780;2023-04-24T14:33:23;18.97;60.32
63976;DHT22;50167;47.958;21.780;2023-04-24T14:35:49;18.12;61.49
63976;DHT22;50167;47.958;21.780;2023-04-24T14:38:15;17.80;65.87
63976;DHT22;50167;47.958;21.780;2023-04-24T14:40:41;18.59;65.54
63976;DHT22;50167;47.958;21.780;2023-04-24T14:43:08;19.25;62.62
63976;DHT22;50167;47.958;21.780;2023-04-24T14:45:34;19.67;61.35
63976;DHT22;50167;47.958;21.780;2023-04-24T14:48:00;19.96;60.67
63976;DHT22;50167;47.958;21.780;2023-04-24T14:50:27;20.27;60.50
63976;DHT22;50167;47.958;21.780;2023-04-24T14:52:56;20.51;59.27
63976;DHT22;50167;47.958;21.780;2023-04-24T14:55:27;20.15;58.42
63976;DHT22;50167;47.958;21.780;2023-04-24T14:57:54;19.19;60.34
63976;DHT22;50167;47.958;21.780;2023-04-24T15:00:21;18.50;62.71
63976;DHT22;50167;47.958;21.780;2023-04-24T15:02:49;18.70;64.42
63976;DHT22;50167;47.958;21.780;2023-04-24T15:05:16;19.39;62.43
63976;DHT22;50167;47.958;21.780;2023-04-24T15:07:42;19.87;61.39
63976;DHT22;50167;47.958;21.780;2023-04-24T15:10:09;20.25;59.45
63976;DHT22;50167;47.958;21.780;2023-04-24T15:12:35;20.05;59.04
63976;DHT22;50167;47.958;21.780;2023-04-24T15:15:02;19.12;60.31
63976;DHT22;50167;47.958;21.780;2023-04-24T15:17:28;18.32;62.20
63976;DHT22;50167;47.958;21.780;2023-04-24T15:19:54;18.43;63.34
63976;DHT22;50167;47.958;21.780;2023-04-24T15:22:21;19.25;63.09
63976;DHT22;50167;47.958;21.780;2023-04-24T15:24:47;19.87;61.41
63976;DHT22;50167;47.958;21.780;2023-04-24T15:27:13;20.04;60.47
63976;DHT22;50167;47.958;21.780;2023-04-24T15:29:39;20.05;60.04
63976;DHT22;50167;47.958;21.780;2023-04-24T15:32:05;20.05;60.22
63976;DHT22;50167;47.958;21.780;2023-04-24T15:34:32;20.35;59.90